sensor_id;sensor_type;location;lat;lon;timestamp;temperature;humidity
1546;DHT22;766;51.502;9.752;2023-02-11T00:01:38;1.50;99.90
1546;DHT22;766;51.502;9.752;2023-02-11T00:04:08;1.50;99.90
1546;DHT22;766;51.502;9.752;2023-02-11T00:06:38;1.40;99.90
1546;DHT22;766;51.502;9.752;2023-02-11T00:09:07;1.50;99.90
1546;DHT22;766;51.502;9.752;2023-02-11T00:11:35;1.50;99.90
1546;DHT22;766;51.502;9.752;2023-02-11T00:14:06;1.50;99.90
1546;DHT22;766;51.502;9.752;2023-02-11T00:16:35;1.50;99.90
1546;DHT22;766;51.502;9.752;2023-02-11T00:19:04;1.50;99.90
1546;DHT22;766;51.502;9.752;2023-02-11T00:21:33;1.50;99.90
1546;DHT22;766;51.502;9.752;2023-02-11T00:24:01;1.50;99.90
1546;DHT22;766;51.502;9.752;2023-02-11T00:26:33;1.50;99.90
1546;DHT22;766;51.502;9.752;2023-02-11T00:29:06;1.60;99.90
1546;DHT22;766;51.502;9.752;2023-02-11T00:31:35;1.60;99.90
1546;DHT22;766;51.502;9.752;2023-02-11T00:34:04;1.60;99.90
1546;DHT22;766;51.502;9.752;2023-02-11T00:36:32;1.60;99.90
1546;DHT22;766;51.502;9.752;2023-02-11T00:39:00;1.50;99.90
1546;DHT22;766;51.502;9.752;2023-02-11T00:41:29;1.50;99.90
1546;DHT22;766;51.502;9.752;2023-02-11T00:43:57;1.50;99.90
1546;DHT22;766;51.502;9.752;2023-02-11T00:46:30;1.50;99.90
1546;DHT22;766;51.502;9.752;2023-02-11T00:48:58;1.50;99.90
1546;DHT22;766;51.502;9.752;2023-02-11T00:51:27;1.50;99.90
1546;DHT22;766;51.502;9.752;2023-02-11T00:53:56;1.60;99.90
1546;DHT22;766;51.502;9.752;2023-02-11T00:56:24;1.60;99.90
1546;DHT22;766;51.502;9.752;2023-02-11T00:58:53;1.60;99.90
1546;DHT22;766;51.502;9.752;2023-02-11T01:01:21;1.60;99.90
1546;DHT22;766;51.502;9.752;2023-02-11T01:03:52;1.60;99.90
1546;DHT22;766;51.502;9.752;2023-02-11T01:06:20;1.60;99.90
1546;DHT22;766;51.502;9.752;2023-02-11T01:08:49;1.60;99.90
1546;DHT22;766;51.502;9.752;2023-02-11T01:11:19;1.60;99.90
1546;DHT22;766;51.502;9.752;2023-02-11T01:13:48;1.60;99.90
1546;DHT22;766;51.502;9.752;2023-02-11T01:16:18;1.60;99.90
1546;DHT22;766;51.502;9.752;2023-02-11T01:18:48;1.60;99.90
1546;DHT22;766;51.502;9.752;2023-02-11T01:21:18;1.60;99.90
1546;DHT22;766;51.502;9.752;2023-02-11T01:23:48;1.60;99.90
1546;DHT22;766;51.502;9.752;2023-02-11T01:26:16;1.70;99.90
1546;DHT22;766;51.502;9.752;2023-02-11T01:28:45;1.60;99.90
1546;DHT22;766;51.502;9.752;2023-02-11T01:31:14;1.70;99.90
1546;DHT22;766;51.502;9.752;2023-02-11T01:33:43;1.60;99.90
1546;DHT22;766;51.502;9.752;2023-02-11T01:36:12;1.60;99.90
1546;DHT22;766;51.502;9.752;2023-02-11T01:38:41;1.60;99.90
1546;DHT22;766;51.502;9.752;2023-02-11T01:41:12;1.60;99.90
1546;DHT22;766;51.502;9.752;2023-02-11T01:43:43;1.60;99.90
1546;DHT22;766;51.502;9.752;2023-02-11T01:46:28;1.60;99.90
1546;DHT22;766;51.502;9.752;2023-02-11T01:49:02;1.60;99.90
1546;DHT22;766;51.502;9.752;2023-02-11T01:51:35;1.60;99.90
1546;DHT22;766;51.502;9.752;2023-02-11T01:54:07;1.60;99.90
1546;DHT22;766;51.502;9.752;2023-02-11T01:56:56;1.60;99.90
1546;DHT22;766;51.502;9.752;2023-02-11T01:59:48;1.60;99.90
1546;DHT22;766;51.502;9.752;2023-02-11T02:02:22;1.60;99.90
1546;DHT22;766;51.502;9.752;2023-02-11T02:04:56;1.60;99.90
1546;DHT22;766;51.502;9.752;2023-02-11T02:07:32;1.60;99.90
1546;DHT22;766;51.502;9.752;2023-02-11T02:10:08;1.60;99.90
1546;DHT22;766;51.502;9.752;2023-02-11T02:12:39;1.60;99.90
1546;DHT22;766;51.502;9.752;2023-02-11T02:15:22;1.60;99.90
1546;DHT22;766;51.502;9.752;2023-02-11T02:18:05;1.50;99.90
1546;DHT22;766;51.502;9.752;2023-02-11T02:21:08;1.60;99.90
1546;DHT22;766;51.502;9.752;2023-02-11T02:24:02;1.60;99.90
1546;DHT22;766;51.502;9.752;2023-02-11T02:33:11;1.50;99.90
1546;DHT22;766;51.502;9.752;2023-02-11T02:36:02;1.60;99.90
1546;DHT22;766;51.502;9.752;2023-02-11T02:38:37;1.50;99.90
1546;DHT22;766;51.502;9.752;2023-02-11T02:41:10;1.60;99.90
1546;DHT22;766;51.502;9.752;2023-02-11T02:43:42;1.60;99.90
1546;DHT22;766;51.502;9.752;2023-02-11T02:46:14;1.60;99.90
1546;DHT22;766;51.502;9.752;2023-02-11T02:48:45;1.60;99.90
1546;DHT22;766;51.502;9.752;2023-02-11T02:54:33;1.60;99.90
1546;DHT22;766;51.502;9.752;2023-02-11T02:57:15;1.60;99.90
1546;DHT22;766;51.502;9.752;2023-02-11T02:59:59;1.60;99.90
1546;DHT22;766;51.502;9.752;2023-02-11T03:02:35;1.60;99.90
1546;DHT22;766;51.502;9.752;2023-02-11T03:05:12;1.60;99.90
1546;DHT22;766;51.502;9.752;2023-02-11T03:07:49;1.60;99.90
1546;DHT22;766;51.502;9.752;2023-02-11T03:10:24;1.70;99.90
1546;DHT22;766;51.502;9.752;2023-02-11T03:12:54;1.60;99.90
1546;DHT22;766;51.502;9.752;2023-02-11T03:15:26;1.60;99.90
1546;DHT22;766;51.502;9.752;2023-02-11T03:17:58;1.60;99.90
1546;DHT22;766;51.502;9.752;2023-02-11T03:20:32;1.60;99.90
1546;DHT22;766;51.502;9.752;2023-02-11T03:23:07;1.60;99.90
1546;DHT22;766;51.502;9.752;2023-02-11T03:25:43;1.60;99.90
1546;DHT22;766;51.502;9.752;2023-02-11T03:28:16;1.60;99.90
1546;DHT22;766;51.502;9.752;2023-02-11T03:30:51;1.60;99.90
1546;DHT22;766;51.502;9.752;2023-02-11T03:33:25;1.60;99.90
1546;DHT22;766;51.502;9.752;2023-02-11T03:36:00;1.60;99.90
1546;DHT22;766;51.502;9.752;2023-02-11T03:38:32;1.50;99.90
1546;DHT22;766;51.502;9.752;2023-02-11T03:41:04;1.60;99.90
1546;DHT22;766;51.502;9.752;2023-02-11T03:43:41;1.50;99.90
1546;DHT22;766;51.502;9.752;2023-02-11T03:46:13;1.60;99.90
1546;DHT22;766;51.502;9.752;2023-02-11T03:48:48;1.50;99.90
1546;DHT22;766;51.502;9.752;2023-02-11T03:51:21;1.50;99.90
1546;DHT22;766;51.502;9.752;2023-02-11T03:53:54;1.50;99.90
1546;DHT22;766;51.502;9.752;2023-02-11T03:56:26;1.50;99.90
1546;DHT22;766;51.502;9.752;2023-02-11T03:58:56;1.50;99.90
1546;DHT22;766;51.502;9.752;2023-02-11T04:01:25;1.50;99.90
1546;DHT22;766;51.502;9.752;2023-02-11T04:03:53;1.50;99.90
1546;DHT22;766;51.502;9.752;2023-02-11T04:06:32;1.50;99.90
1546;DHT22;766;51.502;9.752;2023-02-11T04:09:04;1.50;99.90
1546;DHT22;766;51.502;9.752;2023-02-11T04:11:32;1.50;99.90
1546;DHT22;766;51.502;9.752;2023-02-11T04:14:00;1.50;99.90
1546;DHT22;766;51.502;9.752;2023-02-11T04:16:29;1.60;99.90
1546;DHT22;766;51.502;9.752;2023-02-11T04:18:58;1.60;99.90
1546;DHT22;766;51.502;9.752;2023-02-11T04:21:27;1.60;99.90
1546;DHT22;766;51.502;9.752;2023-02-11T04:23:57;1.60;99.90
1546;DHT22;766;51.502;9.752;2023-02-11T04:26:26;1.60;99.90
1546;DHT22;766;51.502;9.752;2023-02-11T04:28:54;1.60;99.90
1546;DHT22;766;51.502;9.752;2023-02-11T04:31:23;1.60;99.90
1546;DHT22;766;51.502;9.752;2023-02-11T04:33:51;1.60;99.90
1546;DHT22;766;51.502;9.752;2023-02-11T04:36:20;1.60;99.90
1546;DHT22;766;51.502;9.752;2023-02-11T04:38:49;1.60;99.90
1546;DHT22;766;51.502;9.752;2023-02-11T04:41:19;1.60;99.90
1546;DHT22;766;51.502;9.752;2023-02-11T04:43:48;1.60;99.90
1546;DHT22;766;51.502;9.752;2023-02-11T04:46:16;1.60;99.90
1546;DHT22;766;51.502;9.752;2023-02-11T04:48:48;1.60;99.90
1546;DHT22;766;51.502;9.752;2023-02-11T04:51:16;1.70;99.90
1546;DHT22;766;51.502;9.752;2023-02-11T04:53:45;1.70;99.90
1546;DHT22;766;51.502;9.752;2023-02-11T04:56:16;1.80;99.90
1546;DHT22;766;51.502;9.752;2023-02-11T04:58:46;1.80;99.90
1546;DHT22;766;51.502;9.752;2023-02-11T05:01:15;1.80;99.90
1546;DHT22;766;51.502;9.752;2023-02-11T05:03:44;1.70;99.90
1546;DHT22;766;51.502;9.752;2023-02-11T05:06:12;1.70;99.90
1546;DHT22;766;51.502;9.752;2023-02-11T05:08:41;1.70;99.90
1546;DHT22;766;51.502;9.752;2023-02-11T05:11:15;1.80;99.90
1546;DHT22;766;51.502;9.752;2023-02-11T05:13:46;1.80;99.90
1546;DHT22;766;51.502;9.752;2023-02-11T05:16:15;1.80;99.90
1546;DHT22;766;51.502;9.752;2023-02-11T05:18:43;1.80;99.90
1546;DHT22;766;51.502;9.752;2023-02-11T05:21:14;1.80;99.90
1546;DHT22;766;51.502;9.752;2023-02-11T05:23:47;1.80;99.90
1546;DHT22;766;51.502;9.752;2023-02-11T05:26:16;1.80;99.90
1546;DHT22;766;51.502;9.752;2023-02-11T05:28:47;1.80;99.90
1546;DHT22;766;51.502;9.752;2023-02-11T05:31:15;1.80;99.90
1546;DHT22;766;51.502;9.752;2023-02-11T05:33:46;1.70;99.90
1546;DHT22;766;51.502;9.752;2023-02-11T05:36:15;1.70;99.90
1546;DHT22;766;51.502;9.752;2023-02-11T05:38:44;1.70;99.90
1546;DHT22;766;51.502;9.752;2023-02-11T05:41:12;1.80;99.90
1546;DHT22;766;51.502;9.752;2023-02-11T05:43:41;1.80;99.90
1546;DHT22;766;51.502;9.752;2023-02-11T05:46:10;1.80;99.90
1546;DHT22;766;51.502;9.752;2023-02-11T05:48:38;1.80;99.90
1546;DHT22;766;51.502;9.752;2023-02-11T05:51:08;1.80;99.90
1546;DHT22;766;51.502;9.752;2023-02-11T05:53:36;1.80;99.90
1546;DHT22;766;51.502;9.752;2023-02-11T05:56:05;1.80;99.90
1546;DHT22;766;51.502;9.752;2023-02-11T05:58:34;1.70;99.90
1546;DHT22;766;51.502;9.752;2023-02-11T06:01:02;1.70;99.90
1546;DHT22;766;51.502;9.752;2023-02-11T06:03:33;1.80;99.90
1546;DHT22;766;51.502;9.752;2023-02-11T06:06:02;1.80;99.90
1546;DHT22;766;51.502;9.752;2023-02-11T06:08:31;1.80;99.90
1546;DHT22;766;51.502;9.752;2023-02-11T06:10:59;1.80;99.90
1546;DHT22;766;51.502;9.752;2023-02-11T06:13:28;1.80;99.90
1546;DHT22;766;51.502;9.752;2023-02-11T06:16:00;1.80;99.90
1546;DHT22;766;51.502;9.752;2023-02-11T06:18:29;1.80;99.90
1546;DHT22;766;51.502;9.752;2023-02-11T06:21:05;1.80;99.90
1546;DHT22;766;51.502;9.752;2023-02-11T06:23:34;1.80;99.90
1546;DHT22;766;51.502;9.752;2023-02-11T06:26:05;1.80;99.90
1546;DHT22;766;51.502;9.752;2023-02-11T06:28:38;1.80;99.90
1546;DHT22;766;51.502;9.752;2023-02-11T06:31:09;1.80;99.90
1546;DHT22;766;51.502;9.752;2023-02-11T06:33:38;1.90;99.90
1546;DHT22;766;51.502;9.752;2023-02-11T06:36:14;1.90;99.90
1546;DHT22;766;51.502;9.752;2023-02-11T06:38:43;1.90;99.90
1546;DHT22;766;51.502;9.752;2023-02-11T06:41:12;2.00;99.90
1546;DHT22;766;51.502;9.752;2023-02-11T06:43:42;2.00;99.90
1546;DHT22;766;51.502;9.752;2023-02-11T06:46:11;2.00;99.90
1546;DHT22;766;51.502;9.752;2023-02-11T06:48:39;2.00;99.90
1546;DHT22;766;51.502;9.752;2023-02-11T06:51:12;2.10;99.90
1546;DHT22;766;51.502;9.752;2023-02-11T06:53:44;2.10;99.90
1546;DHT22;766;51.502;9.752;2023-02-11T06:56:15;2.10;99.90
1546;DHT22;766;51.502;9.752;2023-02-11T06:58:43;2.20;99.90
1546;DHT22;766;51.502;9.752;2023-02-11T07:01:13;2.20;99.90
1546;DHT22;766;51.502;9.752;2023-02-11T07:03:43;2.20;99.90
1546;DHT22;766;51.502;9.752;2023-02-11T07:06:15;2.20;99.90
1546;DHT22;766;51.502;9.752;2023-02-11T07:08:46;2.20;99.90
1546;DHT22;766;51.502;9.752;2023-02-11T07:11:20;2.20;99.90
1546;DHT22;766;51.502;9.752;2023-02-11T07:13:51;2.20;99.90
1546;DHT22;766;51.502;9.752;2023-02-11T07:16:19;2.30;99.90
1546;DHT22;766;51.502;9.752;2023-02-11T07:18:48;2.30;99.90
1546;DHT22;766;51.502;9.752;2023-02-11T07:21:20;2.30;99.90
1546;DHT22;766;51.502;9.752;2023-02-11T07:23:48;2.30;99.90
1546;DHT22;766;51.502;9.752;2023-02-11T07:26:18;2.30;99.90
1546;DHT22;766;51.502;9.752;2023-02-11T07:28:49;2.30;99.90
1546;DHT22;766;51.502;9.752;2023-02-11T07:31:20;2.30;99.90
1546;DHT22;766;51.502;9.752;2023-02-11T07:33:50;2.30;99.90
1546;DHT22;766;51.502;9.752;2023-02-11T07:36:21;2.30;99.90
1546;DHT22;766;51.502;9.752;2023-02-11T07:38:49;2.20;99.90
1546;DHT22;766;51.502;9.752;2023-02-11T07:41:19;2.30;99.90
1546;DHT22;766;51.502;9.752;2023-02-11T07:43:49;2.30;99.90
1546;DHT22;766;51.502;9.752;2023-02-11T07:46:19;2.20;99.90
1546;DHT22;766;51.502;9.752;2023-02-11T07:48:48;2.30;99.90
1546;DHT22;766;51.502;9.752;2023-02-11T07:51:21;2.30;99.90
1546;DHT22;766;51.502;9.752;2023-02-11T07:53:50;2.20;99.90
1546;DHT22;766;51.502;9.752;2023-02-11T07:56:21;2.30;99.90
1546;DHT22;766;51.502;9.752;2023-02-11T07:58:50;2.30;99.90
1546;DHT22;766;51.502;9.752;2023-02-11T08:01:20;2.30;99.90
1546;DHT22;766;51.502;9.752;2023-02-11T08:03:51;2.30;99.90
1546;DHT22;766;51.502;9.752;2023-02-11T08:06:22;2.30;99.90
1546;DHT22;766;51.502;9.752;2023-02-11T08:08:51;2.30;99.90
1546;DHT22;766;51.502;9.752;2023-02-11T08:11:21;2.30;99.90
1546;DHT22;766;51.502;9.752;2023-02-11T08:13:50;2.20;99.90
1546;DHT22;766;51.502;9.752;2023-02-11T08:16:21;2.20;99.90
1546;DHT22;766;51.502;9.752;2023-02-11T08:18:50;2.20;99.90
1546;DHT22;766;51.502;9.752;2023-02-11T08:21:21;2.20;99.90
1546;DHT22;766;51.502;9.752;2023-02-11T08:23:51;2.20;99.90
1546;DHT22;766;51.502;9.752;2023-02-11T08:26:21;2.30;99.90
1546;DHT22;766;51.502;9.752;2023-02-11T08:28:52;2.30;99.90
1546;DHT22;766;51.502;9.752;2023-02-11T08:31:22;2.30;99.90
1546;DHT22;766;51.502;9.752;2023-02-11T08:33:53;2.30;99.90
1546;DHT22;766;51.502;9.752;2023-02-11T08:36:26;2.40;99.90
1546;DHT22;766;51.502;9.752;2023-02-11T08:38:56;2.40;99.90
1546;DHT22;766;51.502;9.752;2023-02-11T08:41:44;2.40;99.90
1546;DHT22;766;51.502;9.752;2023-02-11T08:44:12;2.40;99.90
1546;DHT22;766;51.502;9.752;2023-02-11T08:46:40;2.50;99.90
1546;DHT22;766;51.502;9.752;2023-02-11T08:49:10;2.50;99.90
1546;DHT22;766;51.502;9.752;2023-02-11T08:51:40;2.50;99.90
1546;DHT22;766;51.502;9.752;2023-02-11T08:54:09;2.50;99.90
1546;DHT22;766;51.502;9.752;2023-02-11T08:56:38;2.40;99.90
1546;DHT22;766;51.502;9.752;2023-02-11T08:59:07;2.50;99.90
1546;DHT22;766;51.502;9.752;2023-02-11T09:01:36;2.50;99.90
1546;DHT22;766;51.502;9.752;2023-02-11T09:04:04;2.50;99.90
1546;DHT22;766;51.502;9.752;2023-02-11T09:06:34;2.50;99.90
1546;DHT22;766;51.502;9.752;2023-02-11T09:09:04;2.50;99.90
1546;DHT22;766;51.502;9.752;2023-02-11T09:11:34;2.50;99.90
1546;DHT22;766;51.502;9.752;2023-02-11T09:14:04;2.50;99.90
1546;DHT22;766;51.502;9.752;2023-02-11T09:16:34;2.40;99.90
1546;DHT22;766;51.502;9.752;2023-02-11T09:19:04;2.50;99.90
1546;DHT22;766;51.502;9.752;2023-02-11T09:21:33;2.40;99.90
1546;DHT22;766;51.502;9.752;2023-02-11T09:24:04;2.40;99.90
1546;DHT22;766;51.502;9.752;2023-02-11T09:26:34;2.50;99.90
1546;DHT22;766;51.502;9.752;2023-02-11T09:29:04;2.60;99.90
1546;DHT22;766;51.502;9.752;2023-02-11T09:31:33;2.70;99.90
1546;DHT22;766;51.502;9.752;2023-02-11T09:34:04;2.70;99.90
1546;DHT22;766;51.502;9.752;2023-02-11T09:36:34;2.80;99.90
1546;DHT22;766;51.502;9.752;2023-02-11T09:39:10;2.80;99.90
1546;DHT22;766;51.502;9.752;2023-02-11T09:42:01;2.90;99.90
1546;DHT22;766;51.502;9.752;2023-02-11T09:44:36;2.90;99.90
1546;DHT22;766;51.502;9.752;2023-02-11T09:47:11;3.00;99.90
1546;DHT22;766;51.502;9.752;2023-02-11T09:49:49;3.10;99.90
1546;DHT22;766;51.502;9.752;2023-02-11T09:52:29;3.20;99.90
1546;DHT22;766;51.502;9.752;2023-02-11T09:55:01;3.30;99.90
1546;DHT22;766;51.502;9.752;2023-02-11T09:57:32;3.40;99.90
1546;DHT22;766;51.502;9.752;2023-02-11T10:00:02;3.50;99.90
1546;DHT22;766;51.502;9.752;2023-02-11T10:02:47;3.50;99.90
1546;DHT22;766;51.502;9.752;2023-02-11T10:05:32;3.60;99.90
1546;DHT22;766;51.502;9.752;2023-02-11T10:08:08;3.70;99.90
1546;DHT22;766;51.502;9.752;2023-02-11T10:10:50;3.90;99.90
1546;DHT22;766;51.502;9.752;2023-02-11T10:13:29;4.00;99.90
1546;DHT22;766;51.502;9.752;2023-02-11T10:16:08;3.90;99.90
1546;DHT22;766;51.502;9.752;2023-02-11T10:18:50;3.90;99.90
1546;DHT22;766;51.502;9.752;2023-02-11T10:21:27;4.00;99.90
1546;DHT22;766;51.502;9.752;2023-02-11T10:24:02;4.00;99.90
1546;DHT22;766;51.502;9.752;2023-02-11T10:26:35;3.90;99.90
1546;DHT22;766;51.502;9.752;2023-02-11T10:29:13;3.90;99.90
1546;DHT22;766;51.502;9.752;2023-02-11T10:31:45;3.90;99.90
1546;DHT22;766;51.502;9.752;2023-02-11T10:34:14;3.80;99.90
1546;DHT22;766;51.502;9.752;2023-02-11T10:36:44;3.80;99.90
1546;DHT22;766;51.502;9.752;2023-02-11T10:39:18;3.80;99.90
1546;DHT22;766;51.502;9.752;2023-02-11T10:41:51;3.80;99.90
1546;DHT22;766;51.502;9.752;2023-02-11T10:44:25;3.90;99.90
1546;DHT22;766;51.502;9.752;2023-02-11T10:46:55;3.90;99.90
1546;DHT22;766;51.502;9.752;2023-02-11T10:49:38;3.90;99.90
1546;DHT22;766;51.502;9.752;2023-02-11T10:52:16;3.80;99.90
1546;DHT22;766;51.502;9.752;2023-02-11T10:55:14;3.80;99.90
1546;DHT22;766;51.502;9.752;2023-02-11T10:57:52;3.90;99.90
1546;DHT22;766;51.502;9.752;2023-02-11T11:00:34;3.90;99.90
1546;DHT22;766;51.502;9.752;2023-02-11T11:03:06;3.90;99.90
1546;DHT22;766;51.502;9.752;2023-02-11T11:05:46;4.00;99.90
1546;DHT22;766;51.502;9.752;2023-02-11T11:08:16;3.90;99.90
1546;DHT22;766;51.502;9.752;2023-02-11T11:10:46;3.90;99.90
1546;DHT22;766;51.502;9.752;2023-02-11T11:13:28;3.90;99.90
1546;DHT22;766;51.502;9.752;2023-02-11T11:16:07;4.00;99.90
1546;DHT22;766;51.502;9.752;2023-02-11T11:18:36;4.00;99.90
1546;DHT22;766;51.502;9.752;2023-02-11T11:21:05;4.00;99.90
1546;DHT22;766;51.502;9.752;2023-02-11T11:23:35;4.10;99.90
1546;DHT22;766;51.502;9.752;2023-02-11T11:26:06;4.10;99.90
1546;DHT22;766;51.502;9.752;2023-02-11T11:28:42;4.10;99.90
1546;DHT22;766;51.502;9.752;2023-02-11T11:31:20;4.10;99.90
1546;DHT22;766;51.502;9.752;2023-02-11T11:33:53;4.00;99.90
1546;DHT22;766;51.502;9.752;2023-02-11T11:36:29;4.00;99.90
1546;DHT22;766;51.502;9.752;2023-02-11T11:39:02;4.00;99.90
1546;DHT22;766;51.502;9.752;2023-02-11T11:41:34;4.00;99.90
1546;DHT22;766;51.502;9.752;2023-02-11T11:44:24;4.00;99.90
1546;DHT22;766;51.502;9.752;2023-02-11T11:47:15;4.00;99.90
1546;DHT22;766;51.502;9.752;2023-02-11T11:49:49;4.10;99.90
1546;DHT22;766;51.502;9.752;2023-02-11T11:52:31;4.20;99.90
1546;DHT22;766;51.502;9.752;2023-02-11T11:55:04;4.10;99.90
1546;DHT22;766;51.502;9.752;2023-02-11T11:57:37;4.10;99.90
1546;DHT22;766;51.502;9.752;2023-02-11T12:00:14;4.10;99.90
1546;DHT22;766;51.502;9.752;2023-02-11T12:05:50;4.20;99.90
1546;DHT22;766;51.502;9.752;2023-02-11T12:08:28;4.30;99.90
1546;DHT22;766;51.502;9.752;2023-02-11T12:11:07;4.40;99.90
1546;DHT22;766;51.502;9.752;2023-02-11T12:13:45;4.40;99.90
1546;DHT22;766;51.502;9.752;2023-02-11T12:16:26;4.40;99.90
1546;DHT22;766;51.502;9.752;2023-02-11T12:22:02;4.60;99.90
1546;DHT22;766;51.502;9.752;2023-02-11T12:24:52;4.60;99.90
1546;DHT22;766;51.502;9.752;2023-02-11T12:27:39;4.70;99.90
1546;DHT22;766;51.502;9.752;2023-02-11T12:30:24;4.70;99.90
1546;DHT22;766;51.502;9.752;2023-02-11T12:33:03;4.70;99.90
1546;DHT22;766;51.502;9.752;2023-02-11T12:35:42;4.70;99.90
1546;DHT22;766;51.502;9.752;2023-02-11T12:38:23;4.80;99.90
1546;DHT22;766;51.502;9.752;2023-02-11T12:41:12;4.80;99.90
1546;DHT22;766;51.502;9.752;2023-02-11T12:43:43;4.80;99.90
1546;DHT22;766;51.502;9.752;2023-02-11T12:49:29;4.90;99.90
1546;DHT22;766;51.502;9.752;2023-02-11T12:52:10;5.00;99.90
1546;DHT22;766;51.502;9.752;2023-02-11T12:54:43;5.00;99.90
1546;DHT22;766;51.502;9.752;2023-02-11T12:57:17;5.10;99.90
1546;DHT22;766;51.502;9.752;2023-02-11T12:59:54;5.10;99.90
1546;DHT22;766;51.502;9.752;2023-02-11T13:02:35;5.10;99.90
1546;DHT22;766;51.502;9.752;2023-02-11T13:05:21;5.20;99.90
1546;DHT22;766;51.502;9.752;2023-02-11T13:07:54;5.20;99.90
1546;DHT22;766;51.502;9.752;2023-02-11T13:10:26;5.20;99.90
1546;DHT22;766;51.502;9.752;2023-02-11T13:13:00;5.30;99.90
1546;DHT22;766;51.502;9.752;2023-02-11T13:15:49;5.30;99.90
1546;DHT22;766;51.502;9.752;2023-02-11T13:18:29;5.40;99.90
1546;DHT22;766;51.502;9.752;2023-02-11T13:21:15;5.50;99.90
1546;DHT22;766;51.502;9.752;2023-02-11T13:23:51;5.50;99.90
1546;DHT22;766;51.502;9.752;2023-02-11T13:26:26;5.60;99.90
1546;DHT22;766;51.502;9.752;2023-02-11T13:29:08;5.70;99.90
1546;DHT22;766;51.502;9.752;2023-02-11T13:31:40;5.70;99.90
1546;DHT22;766;51.502;9.752;2023-02-11T13:34:23;5.80;99.90
1546;DHT22;766;51.502;9.752;2023-02-11T13:36:56;5.80;99.90
1546;DHT22;766;51.502;9.752;2023-02-11T13:39:25;5.80;99.90
1546;DHT22;766;51.502;9.752;2023-02-11T13:42:02;5.90;99.90
1546;DHT22;766;51.502;9.752;2023-02-11T13:44:33;5.90;99.90
1546;DHT22;766;51.502;9.752;2023-02-11T13:47:04;5.90;99.90
1546;DHT22;766;51.502;9.752;2023-02-11T13:49:35;5.90;99.90
1546;DHT22;766;51.502;9.752;2023-02-11T13:52:22;5.90;99.90
1546;DHT22;766;51.502;9.752;2023-02-11T13:54:53;6.00;99.90
1546;DHT22;766;51.502;9.752;2023-02-11T13:57:37;6.00;99.90
1546;DHT22;766;51.502;9.752;2023-02-11T14:00:41;6.00;99.90
1546;DHT22;766;51.502;9.752;2023-02-11T14:03:37;6.00;99.90
1546;DHT22;766;51.502;9.752;2023-02-11T14:06:27;6.10;99.90
1546;DHT22;766;51.502;9.752;2023-02-11T14:09:35;6.10;99.90
1546;DHT22;766;51.502;9.752;2023-02-11T14:12:29;6.10;99.90
1546;DHT22;766;51.502;9.752;2023-02-11T14:15:16;6.10;99.90
1546;DHT22;766;51.502;9.752;2023-02-11T14:17:48;6.10;99.90
1546;DHT22;766;51.502;9.752;2023-02-11T14:20:41;6.00;99.90
1546;DHT22;766;51.502;9.752;2023-02-11T14:23:22;6.10;99.90
1546;DHT22;766;51.502;9.752;2023-02-11T14:28:49;6.00;99.90
1546;DHT22;766;51.502;9.752;2023-02-11T14:31:21;6.00;99.90
1546;DHT22;766;51.502;9.752;2023-02-11T14:37:01;6.00;99.90
1546;DHT22;766;51.502;9.752;2023-02-11T14:39:44;6.00;99.90
1546;DHT22;766;51.502;9.752;2023-02-11T14:42:19;6.00;99.90
1546;DHT22;766;51.502;9.752;2023-02-11T14:44:56;6.00;99.90
1546;DHT22;766;51.502;9.752;2023-02-11T14:47:39;6.00;99.90
1546;DHT22;766;51.502;9.752;2023-02-11T14:50:23;5.90;99.90
1546;DHT22;766;51.502;9.752;2023-02-11T14:52:53;6.00;99.90
1546;DHT22;766;51.502;9.752;2023-02-11T14:55:28;5.90;99.90
1546;DHT22;766;51.502;9.752;2023-02-11T14:58:13;6.00;99.90
1546;DHT22;766;51.502;9.752;2023-02-11T15:00:49;6.00;99.90
1546;DHT22;766;51.502;9.752;2023-02-11T15:03:29;5.90;99.90
1546;DHT22;766;51.502;9.752;2023-02-11T15:06:00;5.80;99.90
1546;DHT22;766;51.502;9.752;2023-02-11T15:08:34;5.80;99.90
1546;DHT22;766;51.502;9.752;2023-02-11T15:11:09;5.80;99.90
1546;DHT22;766;51.502;9.752;2023-02-11T15:13:41;5.90;99.90
1546;DHT22;766;51.502;9.752;2023-02-11T15:16:17;5.80;99.90
1546;DHT22;766;51.502;9.752;2023-02-11T15:18:50;5.80;99.90
1546;DHT22;766;51.502;9.752;2023-02-11T15:21:21;5.80;99.90
1546;DHT22;766;51.502;9.752;2023-02-11T15:23:59;5.80;99.90
1546;DHT22;766;51.502;9.752;2023-02-11T15:26:29;5.70;99.90
1546;DHT22;766;51.502;9.752;2023-02-11T15:29:00;5.80;99.90
1546;DHT22;766;51.502;9.752;2023-02-11T15:31:28;5.80;99.90
1546;DHT22;766;51.502;9.752;2023-02-11T15:34:06;5.80;99.90
1546;DHT22;766;51.502;9.752;2023-02-11T15:36:37;5.80;99.90
1546;DHT22;766;51.502;9.752;2023-02-11T15:39:16;5.70;99.90
1546;DHT22;766;51.502;9.752;2023-02-11T15:41:45;5.70;99.90
1546;DHT22;766;51.502;9.752;2023-02-11T15:44:29;5.70;99.90
1546;DHT22;766;51.502;9.752;2023-02-11T15:46:58;5.80;99.90
1546;DHT22;766;51.502;9.752;2023-02-11T15:49:26;5.70;99.90
1546;DHT22;766;51.502;9.752;2023-02-11T15:51:56;5.70;99.90
1546;DHT22;766;51.502;9.752;2023-02-11T15:54:27;5.70;99.90
1546;DHT22;766;51.502;9.752;2023-02-11T15:57:00;5.70;99.90
1546;DHT22;766;51.502;9.752;2023-02-11T15:59:38;5.60;99.90
1546;DHT22;766;51.502;9.752;2023-02-11T16:02:14;5.60;99.90
1546;DHT22;766;51.502;9.752;2023-02-11T16:04:48;5.60;99.90
1546;DHT22;766;51.502;9.752;2023-02-11T16:07:42;5.60;99.90
1546;DHT22;766;51.502;9.752;2023-02-11T16:10:19;5.60;99.90
1546;DHT22;766;51.502;9.752;2023-02-11T16:12:53;5.50;99.90
1546;DHT22;766;51.502;9.752;2023-02-11T16:15:46;5.60;99.90
1546;DHT22;766;51.502;9.752;2023-02-11T16:18:24;5.60;99.90
1546;DHT22;766;51.502;9.752;2023-02-11T16:21:07;5.60;99.90
1546;DHT22;766;51.502;9.752;2023-02-11T16:23:40;5.60;99.90
1546;DHT22;766;51.502;9.752;2023-02-11T16:26:18;5.60;99.90
1546;DHT22;766;51.502;9.752;2023-02-11T16:28:48;5.60;99.90
1546;DHT22;766;51.502;9.752;2023-02-11T16:31:18;5.60;99.90
1546;DHT22;766;51.502;9.752;2023-02-11T16:33:47;5.60;99.90
1546;DHT22;766;51.502;9.752;2023-02-11T16:36:15;5.60;99.90
1546;DHT22;766;51.502;9.752;2023-02-11T16:38:44;5.60;99.90
1546;DHT22;766;51.502;9.752;2023-02-11T16:41:12;5.60;99.90
1546;DHT22;766;51.502;9.752;2023-02-11T16:43:40;5.60;99.90
1546;DHT22;766;51.502;9.752;2023-02-11T16:46:12;5.60;99.90
1546;DHT22;766;51.502;9.752;2023-02-11T16:48:42;5.60;99.90
1546;DHT22;766;51.502;9.752;2023-02-11T16:51:12;5.60;99.90
1546;DHT22;766;51.502;9.752;2023-02-11T16:53:40;5.60;99.90
1546;DHT22;766;51.502;9.752;2023-02-11T16:56:13;5.60;99.90
1546;DHT22;766;51.502;9.752;2023-02-11T16:58:43;5.60;99.90
1546;DHT22;766;51.502;9.752;2023-02-11T17:01:12;5.60;99.90
1546;DHT22;766;51.502;9.752;2023-02-11T17:03:42;5.60;99.90
1546;DHT22;766;51.502;9.752;2023-02-11T17:06:12;5.60;99.90
1546;DHT22;766;51.502;9.752;2023-02-11T17:08:40;5.60;99.90
1546;DHT22;766;51.502;9.752;2023-02-11T17:11:09;5.60;99.90
1546;DHT22;766;51.502;9.752;2023-02-11T17:13:43;5.60;99.90
1546;DHT22;766;51.502;9.752;2023-02-11T17:16:16;5.60;99.90
1546;DHT22;766;51.502;9.752;2023-02-11T17:18:46;5.60;99.90
1546;DHT22;766;51.502;9.752;2023-02-11T17:21:16;5.60;99.90
1546;DHT22;766;51.502;9.752;2023-02-11T17:23:45;5.60;99.90
1546;DHT22;766;51.502;9.752;2023-02-11T17:26:13;5.70;99.90
1546;DHT22;766;51.502;9.752;2023-02-11T17:28:42;5.70;99.90
1546;DHT22;766;51.502;9.752;2023-02-11T17:31:10;5.70;99.90
1546;DHT22;766;51.502;9.752;2023-02-11T17:33:39;5.70;99.90
1546;DHT22;766;51.502;9.752;2023-02-11T17:36:09;5.70;99.90
1546;DHT22;766;51.502;9.752;2023-02-11T17:38:37;5.70;99.90
1546;DHT22;766;51.502;9.752;2023-02-11T17:41:06;5.70;99.90